| time (UTC) | temp F | wind direction | speed MPH | gust MPH | rain 1hr in | rain 24hr in | rain mn in | humidity % | barometer mb |
| 20260906191201 | 58 | 233 | 3.0 | 5.0 | 0.01 | 0.16 | 0.13 | 73 | 1016.7 |
| 20260906190202 | 57 | 235 | 2.0 | 5.0 | 0.01 | 0.16 | 0.13 | 73 | 1016.7 |
| 20260906185202 | 58 | 203 | 4.0 | 6.0 | 0.01 | 0.16 | 0.13 | 73 | 1016.6 |
| 20260906184201 | 57 | 239 | 2.0 | 4.0 | 0.01 | 0.16 | 0.13 | 74 | 1016.6 |
| 20260906183201 | 58 | 195 | 3.0 | 6.0 | 0.01 | 0.16 | 0.13 | 72 | 1016.7 |
| 20260906182201 | 57 | 219 | 3.0 | 6.0 | 0.00 | 0.15 | 0.12 | 74 | 1016.7 |
| 20260906181202 | 58 | 205 | 3.0 | 10.0 | 0.00 | 0.15 | 0.12 | 75 | 1016.8 |
| 20260906180202 | 58 | 205 | 2.0 | 6.0 | 0.00 | 0.15 | 0.12 | 77 | 1016.7 |
| 20260906175201 | 56 | 200 | 4.0 | 8.0 | 0.01 | 0.15 | 0.12 | 79 | 1016.8 |
| 20260906174201 | 56 | 190 | 1.0 | 4.0 | 0.01 | 0.15 | 0.12 | 80 | 1016.8 |
| 20260906173222 | 56 | 161 | 2.0 | 5.0 | 0.01 | 0.15 | 0.12 | 80 | 1016.7 |
| 20260906172202 | 54 | 180 | 2.0 | 8.0 | 0.01 | 0.15 | 0.12 | 84 | 1016.8 |
| 20260906171201 | 54 | 199 | 3.0 | 6.0 | 0.01 | 0.15 | 0.12 | 85 | 1016.9 |
| 20260906170201 | 54 | 194 | 3.0 | 8.0 | 0.01 | 0.15 | 0.12 | 85 | 1016.9 |
| 20260906165201 | 54 | 216 | 6.0 | 9.0 | 0.01 | 0.14 | 0.11 | 85 | 1016.9 |
| 20260906164202 | 54 | 201 | 4.0 | 8.0 | 0.01 | 0.14 | 0.11 | 89 | 1016.9 |
| 20260906163202 | 54 | 128 | 1.0 | 6.0 | 0.01 | 0.14 | 0.11 | 90 | 1017.0 |
| 20260906162222 | 52 | 165 | 2.0 | 4.0 | 0.01 | 0.14 | 0.11 | 97 | 1017.0 |
| 20260906161202 | 51 | 137 | 1.0 | 6.0 | 0.01 | 0.14 | 0.11 | 99 | 1016.9 |
| 20260906160201 | 52 | 172 | 2.0 | 6.0 | 0.01 | 0.14 | 0.11 | 99 | 1016.8 |
| 20260906155222 | 51 | 208 | 1.0 | 3.0 | 0.00 | 0.13 | 0.10 | 100 | 1016.8 |
| 20260906154202 | 50 | 191 | 2.0 | 4.0 | 0.01 | 0.13 | 0.10 | 100 | 1016.8 |
| 20260906153202 | 50 | 221 | 0.0 | 3.0 | 0.01 | 0.13 | 0.10 | 100 | 1016.7 |
| 20260906152202 | 50 | 0.0 | 2.0 | 0.01 | 0.13 | 0.10 | 100 | 1016.7 | |
| 20260906151202 | 49 | 208 | 0.0 | 2.0 | 0.01 | 0.13 | 0.10 | 100 | 1016.7 |
| 20260906150202 | 49 | 0.0 | 0.0 | 0.01 | 0.13 | 0.10 | 100 | 1016.6 | |
| 20260906145202 | 49 | 0.0 | 0.0 | 0.01 | 0.13 | 0.10 | 100 | 1016.6 | |
| 20260906144222 | 48 | 0.0 | 0.0 | 0.00 | 0.12 | 0.09 | 100 | 1016.6 | |
| 20260906143202 | 48 | 0.0 | 0.0 | 0.01 | 0.12 | 0.09 | 100 | 1016.5 | |
| 20260906142202 | 48 | 0.0 | 0.0 | 0.01 | 0.12 | 0.09 | 100 | 1016.3 | |
| 20260906141202 | 48 | 0.0 | 0.0 | 0.01 | 0.12 | 0.09 | 100 | 1016.3 | |
| 20260906140202 | 48 | 0.0 | 0.0 | 0.01 | 0.12 | 0.09 | 100 | 1016.3 | |
| 20260906135222 | 47 | 0.0 | 1.0 | 0.01 | 0.12 | 0.09 | 100 | 1016.2 | |
| 20260906134202 | 48 | 0.0 | 0.0 | 0.01 | 0.12 | 0.09 | 100 | 1016.1 | |
| 20260906133202 | 48 | 198 | 0.0 | 2.0 | 0.01 | 0.11 | 0.08 | 100 | 1016.1 |
| 20260906132202 | 47 | 210 | 1.0 | 3.0 | 0.01 | 0.11 | 0.08 | 100 | 1016.1 |
| 20260906131202 | 47 | 0.0 | 0.0 | 0.01 | 0.11 | 0.08 | 100 | 1016.0 | |
| 20260906130202 | 47 | 208 | 0.0 | 2.0 | 0.01 | 0.11 | 0.08 | 100 | 1016.0 |
| 20260906125202 | 48 | 193 | 1.0 | 3.0 | 0.01 | 0.11 | 0.08 | 100 | 1016.0 |
| 20260906124202 | 48 | 0.0 | 0.0 | 0.01 | 0.11 | 0.08 | 100 | 1016.0 | |
| 20260906123202 | 48 | 206 | 2.0 | 3.0 | 0.01 | 0.10 | 0.07 | 100 | 1016.0 |
| 20260906122205 | 48 | 0.0 | 1.0 | 0.01 | 0.10 | 0.07 | 100 | 1016.1 | |
| 20260906121202 | 48 | 215 | 2.0 | 5.0 | 0.01 | 0.10 | 0.07 | 100 | 1016.2 |
| 20260906120205 | 49 | 250 | 2.0 | 6.0 | 0.01 | 0.10 | 0.07 | 100 | 1016.2 |
| 20260906115202 | 49 | 0.0 | 0.0 | 0.01 | 0.10 | 0.07 | 100 | 1016.3 | |
| 20260906114202 | 49 | 0.0 | 0.0 | 0.02 | 0.10 | 0.07 | 100 | 1016.4 | |
| 20260906113202 | 49 | 0.0 | 0.0 | 0.01 | 0.09 | 0.06 | 100 | 1016.7 | |
| 20260906112203 | 49 | 0.0 | 0.0 | 0.01 | 0.09 | 0.06 | 100 | 1016.7 | |
| 20260906111202 | 49 | 0.0 | 1.0 | 0.01 | 0.09 | 0.06 | 100 | 1016.7 | |
| 20260906110202 | 49 | 310 | 1.0 | 4.0 | 0.01 | 0.09 | 0.06 | 100 | 1016.7 |
| 20260906105202 | 49 | 268 | 0.0 | 2.0 | 0.02 | 0.09 | 0.06 | 100 | 1017.1 |
| 20260906104222 | 49 | 253 | 1.0 | 3.0 | 0.01 | 0.08 | 0.05 | 100 | 1017.2 |
| 20260906103202 | 49 | 227 | 1.0 | 3.0 | 0.01 | 0.08 | 0.05 | 100 | 1017.1 |
| 20260906102202 | 49 | 215 | 1.0 | 3.0 | 0.01 | 0.08 | 0.05 | 100 | 1017.0 |
| 20260906101202 | 49 | 272 | 1.0 | 3.0 | 0.01 | 0.08 | 0.05 | 100 | 1016.9 |
| 20260906100202 | 49 | 0.0 | 0.0 | 0.01 | 0.08 | 0.05 | 100 | 1016.8 | |
| 20260906095222 | 49 | 359 | 4.0 | 7.0 | 0.01 | 0.07 | 0.04 | 100 | 1016.6 |
| 20260906094202 | 49 | 12 | 1.0 | 3.0 | 0.01 | 0.07 | 0.04 | 100 | 1016.6 |
| 20260906093202 | 49 | 6 | 0.0 | 3.0 | 0.01 | 0.07 | 0.04 | 100 | 1016.6 |
| 20260906092202 | 50 | 344 | 1.0 | 3.0 | 0.01 | 0.07 | 0.04 | 100 | 1016.5 |
| 20260906091202 | 50 | 30 | 1.0 | 4.0 | 0.02 | 0.07 | 0.04 | 100 | 1016.5 |
| 20260906090202 | 50 | 4 | 1.0 | 3.0 | 0.02 | 0.07 | 0.04 | 99 | 1016.6 |
| 20260906085202 | 50 | 4 | 1.0 | 4.0 | 0.01 | 0.06 | 0.03 | 99 | 1016.7 |
| 20260906084202 | 50 | 43 | 0.0 | 4.0 | 0.01 | 0.06 | 0.03 | 100 | 1016.7 |
| 20260906083243 | 50 | 16 | 1.0 | 5.0 | 0.01 | 0.06 | 0.03 | 100 | 1016.9 |
| 20260906082202 | 50 | 10 | 1.0 | 3.0 | 0.02 | 0.06 | 0.03 | 100 | 1017.0 |
| 20260906081203 | 49 | 12 | 1.0 | 3.0 | 0.01 | 0.05 | 0.02 | 100 | 1017.0 |
| 20260906080202 | 49 | 21 | 2.0 | 5.0 | 0.01 | 0.05 | 0.02 | 100 | 1016.8 |
| 20260906075202 | 50 | 11 | 3.0 | 6.0 | 0.02 | 0.05 | 0.02 | 100 | 1016.8 |
| 20260906074202 | 49 | 6 | 2.0 | 5.0 | 0.02 | 0.06 | 0.02 | 100 | 1016.9 |
| 20260906073202 | 49 | 7 | 3.0 | 7.0 | 0.02 | 0.06 | 0.02 | 100 | 1016.8 |
| 20260906072202 | 49 | 53 | 1.0 | 3.0 | 0.01 | 0.05 | 0.01 | 100 | 1016.8 |
| 20260906071202 | 49 | 14 | 3.0 | 8.0 | 0.02 | 0.05 | 0.01 | 100 | 1016.6 |
| 20260906070202 | 50 | 17 | 3.0 | 6.0 | 0.02 | 0.05 | 0.01 | 100 | 1016.6 |
| 20260906065202 | 50 | 8 | 1.0 | 4.0 | 0.01 | 0.04 | 0.04 | 100 | 1017.0 |
| 20260906064222 | 50 | 0.0 | 0.0 | 0.02 | 0.04 | 0.04 | 100 | 1017.1 | |
| 20260906063202 | 50 | 21 | 3.0 | 6.0 | 0.02 | 0.04 | 0.04 | 100 | 1017.1 |
| 20260906062202 | 50 | 13 | 5.0 | 8.0 | 0.02 | 0.04 | 0.04 | 100 | 1017.2 |
| 20260906061202 | 50 | 3 | 2.0 | 8.0 | 0.02 | 0.03 | 0.03 | 100 | 1017.5 |
| 20260906060222 | 50 | 10 | 3.0 | 7.0 | 0.02 | 0.03 | 0.03 | 100 | 1017.7 |
| 20260906055206 | 50 | 358 | 4.0 | 7.0 | 0.02 | 0.03 | 0.03 | 100 | 1017.8 |
| 20260906054202 | 50 | 7 | 1.0 | 3.0 | 0.01 | 0.02 | 0.02 | 100 | 1018.0 |
| 20260906053206 | 51 | 311 | 3.0 | 9.0 | 0.01 | 0.02 | 0.02 | 99 | 1018.0 |
| 20260906052242 | 52 | 256 | 3.0 | 9.0 | 0.01 | 0.02 | 0.02 | 96 | 1018.1 |
| 20260906051203 | 54 | 251 | 5.0 | 11.0 | 0.00 | 0.01 | 0.01 | 88 | 1017.9 |
| 20260906050202 | 54 | 237 | 4.0 | 9.0 | 0.00 | 0.01 | 0.01 | 87 | 1017.9 |
| 20260906045203 | 54 | 237 | 3.0 | 7.0 | 0.00 | 0.01 | 0.01 | 86 | 1017.5 |
| 20260906044223 | 54 | 323 | 1.0 | 2.0 | 0.00 | 0.01 | 0.01 | 85 | 1017.1 |
| 20260906043202 | 55 | 247 | 1.0 | 4.0 | 0.00 | 0.01 | 0.01 | 83 | 1017.1 |
| 20260906042202 | 57 | 270 | 2.0 | 5.0 | 0.00 | 0.01 | 0.01 | 76 | 1016.8 |
| 20260906041203 | 58 | 355 | 1.0 | 6.0 | 0.00 | 0.01 | 0.01 | 68 | 1016.8 |
| 20260906040203 | 58 | 352 | 1.0 | 4.0 | 0.00 | 0.01 | 0.01 | 69 | 1016.6 |
| 20260906035202 | 58 | 262 | 2.0 | 6.0 | 0.00 | 0.01 | 0.01 | 68 | 1016.5 |
| 20260906034203 | 59 | 255 | 2.0 | 5.0 | 0.00 | 0.01 | 0.01 | 67 | 1016.2 |
| 20260906033223 | 60 | 348 | 2.0 | 8.0 | 0.00 | 0.01 | 0.01 | 65 | 1016.0 |
| 20260906032202 | 60 | 307 | 3.0 | 6.0 | 0.00 | 0.01 | 0.01 | 64 | 1015.9 |
| 20260906031222 | 61 | 357 | 3.0 | 9.0 | 0.00 | 0.01 | 0.01 | 62 | 1015.7 |
| 20260906030202 | 61 | 343 | 3.0 | 6.0 | 0.00 | 0.01 | 0.01 | 61 | 1015.5 |
| 20260906025202 | 62 | 0 | 3.0 | 9.0 | 0.00 | 0.01 | 0.01 | 60 | 1015.4 |
| 20260906024223 | 62 | 3 | 3.0 | 10.0 | 0.00 | 0.01 | 0.01 | 60 | 1015.4 |
| 20260906023203 | 62 | 352 | 4.0 | 8.0 | 0.00 | 0.01 | 0.01 | 59 | 1015.3 |
| 20260906022202 | 62 | 6 | 5.0 | 8.0 | 0.00 | 0.01 | 0.01 | 59 | 1015.3 |
| 20260906021223 | 63 | 11 | 4.0 | 8.0 | 0.00 | 0.01 | 0.01 | 59 | 1015.3 |
| 20260906020204 | 63 | 359 | 5.0 | 9.0 | 0.00 | 0.01 | 0.01 | 59 | 1015.3 |
| 20260906015203 | 63 | 2 | 6.0 | 12.0 | 0.00 | 0.01 | 0.01 | 59 | 1015.3 |
| 20260906014223 | 63 | 9 | 6.0 | 13.0 | 0.00 | 0.01 | 0.01 | 58 | 1015.3 |
| 20260906013202 | 63 | 359 | 7.0 | 12.0 | 0.00 | 0.01 | 0.01 | 57 | 1015.2 |
| 20260906012203 | 64 | 354 | 7.0 | 10.0 | 0.00 | 0.01 | 0.01 | 57 | 1015.2 |
| 20260906011203 | 64 | 6 | 5.0 | 9.0 | 0.00 | 0.01 | 0.01 | 56 | 1015.2 |
| 20260906010223 | 65 | 357 | 5.0 | 9.0 | 0.00 | 0.01 | 0.01 | 55 | 1015.2 |
| 20260906005203 | 65 | 354 | 7.0 | 13.0 | 0.00 | 0.01 | 0.01 | 55 | 1015.2 |
| 20260906004223 | 65 | 5 | 5.0 | 11.0 | 0.00 | 0.01 | 0.01 | 55 | 1015.2 |
| 20260906003203 | 66 | 356 | 4.0 | 9.0 | 0.00 | 0.01 | 0.01 | 53 | 1015.1 |
| 20260906002223 | 66 | 9 | 7.0 | 11.0 | 0.00 | 0.01 | 0.01 | 52 | 1015.1 |
| 20260906001203 | 67 | 17 | 6.0 | 11.0 | 0.00 | 0.01 | 0.01 | 51 | 1015.1 |
| 20260906000204 | 68 | 5 | 6.0 | 10.0 | 0.00 | 0.01 | 0.01 | 50 | 1015.0 |
| 20260905235203 | 68 | 11 | 5.0 | 9.0 | 0.00 | 0.01 | 0.01 | 50 | 1014.9 |
| 20260905234203 | 68 | 348 | 4.0 | 8.0 | 0.00 | 0.01 | 0.01 | 51 | 1015.0 |
| 20260905233203 | 68 | 15 | 3.0 | 10.0 | 0.00 | 0.01 | 0.01 | 51 | 1015.0 |
| 20260905232204 | 68 | 359 | 3.0 | 5.0 | 0.00 | 0.01 | 0.01 | 50 | 1015.1 |
| 20260905231203 | 71 | 270 | 3.0 | 7.0 | 0.00 | 0.01 | 0.01 | 46 | 1015.1 |
| 20260905230223 | 71 | 241 | 4.0 | 9.0 | 0.00 | 0.01 | 0.01 | 47 | 1015.2 |
| 20260905225203 | 72 | 243 | 4.0 | 8.0 | 0.00 | 0.02 | 0.01 | 46 | 1015.1 |
| 20260905224203 | 70 | 285 | 2.0 | 6.0 | 0.00 | 0.02 | 0.01 | 48 | 1015.2 |
| 20260905223204 | 71 | 327 | 1.0 | 5.0 | 0.00 | 0.02 | 0.01 | 46 | 1015.3 |
| 20260905222203 | 71 | 356 | 1.0 | 3.0 | 0.00 | 0.02 | 0.01 | 47 | 1015.4 |
| 20260905221203 | 71 | 3 | 1.0 | 5.0 | 0.00 | 0.02 | 0.01 | 48 | 1015.5 |
| 20260905220203 | 69 | 151 | 2.0 | 7.0 | 0.00 | 0.02 | 0.01 | 50 | 1015.5 |
| 20260905215203 | 69 | 170 | 2.0 | 7.0 | 0.00 | 0.02 | 0.01 | 51 | 1015.6 |
| 20260905214243 | 70 | 226 | 1.0 | 4.0 | 0.00 | 0.02 | 0.01 | 51 | 1015.8 |
| 20260905213203 | 69 | 349 | 2.0 | 5.0 | 0.00 | 0.02 | 0.01 | 50 | 1015.9 |
| 20260905212243 | 68 | 13 | 2.0 | 7.0 | 0.00 | 0.02 | 0.01 | 51 | 1016.0 |
| 20260905211223 | 67 | 300 | 3.0 | 7.0 | 0.00 | 0.02 | 0.01 | 52 | 1016.2 |
| 20260905210203 | 66 | 191 | 4.0 | 9.0 | 0.00 | 0.02 | 0.01 | 55 | 1016.4 |
| 20260905205203 | 67 | 342 | 3.0 | 6.0 | 0.00 | 0.02 | 0.01 | 53 | 1016.4 |
| 20260905204203 | 67 | 211 | 3.0 | 8.0 | 0.00 | 0.02 | 0.01 | 54 | 1016.6 |
| 20260905203203 | 66 | 206 | 1.0 | 7.0 | 0.00 | 0.02 | 0.01 | 54 | 1016.7 |
| 20260905202203 | 66 | 183 | 2.0 | 5.0 | 0.00 | 0.02 | 0.01 | 56 | 1016.8 |
| 20260905201224 | 65 | 232 | 4.0 | 9.0 | 0.00 | 0.02 | 0.01 | 55 | 1016.9 |
| 20260905200203 | 64 | 217 | 2.0 | 5.0 | 0.00 | 0.02 | 0.01 | 57 | 1016.9 |
| 20260905195223 | 65 | 219 | 4.0 | 12.0 | 0.00 | 0.02 | 0.01 | 56 | 1017.0 |
| 20260905194223 | 64 | 230 | 3.0 | 7.0 | 0.00 | 0.02 | 0.01 | 56 | 1017.2 |
| 20260905193203 | 65 | 208 | 3.0 | 6.0 | 0.00 | 0.02 | 0.01 | 55 | 1017.1 |
| 20260905192204 | 63 | 200 | 4.0 | 8.0 | 0.00 | 0.02 | 0.01 | 57 | 1017.3 |